Time;durP1;ratioP1;P1;durP2;ratioP2;P2;SDS_P1;SDS_P2;PMS_P1;PMS_P2;Temp;Humidity;BMP_temperature;BMP_pressure;BME280_temperature;BME280_humidity;BME280_pressure;Samples;Min_cycle;Max_cycle;Signal;HPM_P1;HPM_P2
2024/03/31 10:55:52;;;;;;;18.67;13.23;;;9.90;99.90;;;;;;5106489;27;20289;-58
2024/03/31 10:58:18;;;;;;;19.40;13.47;;;9.80;99.90;;;;;;5095146;28;20209;-58
2024/03/31 11:00:45;;;;;;;22.00;14.23;;;9.90;99.90;;;;;;5072392;28;20254;-57
2024/03/31 11:03:11;;;;;;;17.20;12.63;;;10.00;99.90;;;;;;5074677;28;20196;-59
2024/03/31 11:05:39;;;;;;;19.37;14.53;;;10.10;99.90;;;;;;5099412;28;20181;-59
2024/03/31 11:08:08;;;;;;;19.43;13.37;;;10.10;99.90;;;;;;5090301;28;20370;-60
2024/03/31 11:10:36;;;;;;;18.97;13.20;;;10.10;99.90;;;;;;5077549;28;20250;-59
2024/03/31 11:13:04;;;;;;;19.73;13.33;;;10.10;99.90;;;;;;5091560;28;20205;-58
2024/03/31 11:15:33;;;;;;;18.83;13.63;;;10.10;99.90;;;;;;5085470;28;20198;-60
2024/03/31 11:17:59;;;;;;;16.53;12.33;;;10.30;99.90;;;;;;5070557;28;20205;-56
2024/03/31 11:20:26;;;;;;;14.93;11.70;;;10.30;99.90;;;;;;5090952;28;20225;-60
2024/03/31 11:22:53;;;;;;;16.03;12.20;;;10.30;99.90;;;;;;5090615;28;21320;-55
2024/03/31 11:25:20;;;;;;;14.00;11.83;;;10.30;99.90;;;;;;5104575;28;20216;-58
2024/03/31 11:27:47;;;;;;;17.77;12.43;;;10.40;99.90;;;;;;5078606;28;20776;-58
2024/03/31 11:30:17;;;;;;;13.77;11.57;;;10.40;99.90;;;;;;5088994;28;20205;-57
2024/03/31 11:32:43;;;;;;;17.00;11.93;;;10.60;99.90;;;;;;5086897;28;20205;-57
2024/03/31 11:35:11;;;;;;;14.40;11.83;;;10.70;99.90;;;;;;5058873;28;20250;-60
2024/03/31 11:37:37;;;;;;;16.47;13.00;;;10.90;99.90;;;;;;5096591;28;20238;-57
2024/03/31 11:40:06;;;;;;;13.70;11.27;;;11.10;99.90;;;;;;5093573;28;20548;-58
2024/03/31 11:42:32;;;;;;;14.60;11.10;;;11.10;99.90;;;;;;5101686;28;20205;-58
2024/03/31 11:44:59;;;;;;;14.27;11.33;;;11.20;99.90;;;;;;5078280;28;20241;-57
2024/03/31 11:47:26;;;;;;;12.87;10.67;;;11.20;99.90;;;;;;5097839;28;20623;-58
2024/03/31 11:49:53;;;;;;;11.77;9.90;;;11.10;99.90;;;;;;5066654;28;20197;-59
2024/03/31 11:52:19;;;;;;;12.70;10.17;;;11.20;99.90;;;;;;5088943;28;20186;-59
2024/03/31 11:54:46;;;;;;;11.40;9.93;;;11.30;99.90;;;;;;5084866;28;20243;-59
2024/03/31 11:57:12;;;;;;;12.77;10.17;;;11.30;99.90;;;;;;5097064;28;20744;-59
2024/03/31 11:59:39;;;;;;;13.23;11.23;;;11.50;99.90;;;;;;5092439;28;20664;-60
2024/03/31 12:02:06;;;;;;;11.67;10.43;;;11.50;99.90;;;;;;5084425;28;20695;-59
2024/03/31 12:04:34;;;;;;;13.37;10.60;;;11.50;99.90;;;;;;5069843;28;20216;-60
2024/03/31 12:07:00;;;;;;;12.57;10.33;;;11.30;99.90;;;;;;5078366;28;21070;-60
2024/03/31 12:09:29;;;;;;;11.30;10.00;;;11.30;99.90;;;;;;5082210;28;20540;-60
2024/03/31 12:11:55;;;;;;;10.43;9.37;;;11.30;99.90;;;;;;5075242;28;20925;-59
2024/03/31 12:14:22;;;;;;;12.57;11.23;;;11.30;99.90;;;;;;5086193;28;20423;-60
2024/03/31 12:16:50;;;;;;;12.37;11.07;;;11.30;99.90;;;;;;5068040;28;20242;-60
2024/03/31 12:19:18;;;;;;;12.50;10.87;;;11.30;99.90;;;;;;5085825;28;20272;-60
2024/03/31 12:21:46;;;;;;;12.03;10.57;;;11.30;99.90;;;;;;5044223;28;20210;-60
2024/03/31 12:24:14;;;;;;;13.70;10.77;;;11.30;99.90;;;;;;5084671;28;20213;-59
2024/03/31 12:26:41;;;;;;;12.47;11.20;;;11.40;99.90;;;;;;5068746;28;20226;-59
2024/03/31 12:29:10;;;;;;;12.43;9.97;;;11.40;99.90;;;;;;5083637;28;20185;-57
2024/03/31 12:31:36;;;;;;;11.53;10.23;;;11.50;99.90;;;;;;5074673;28;20676;-59
2024/03/31 12:34:03;;;;;;;11.93;10.50;;;11.50;99.90;;;;;;5074787;28;20186;-60
2024/03/31 12:36:31;;;;;;;14.57;11.73;;;11.40;99.90;;;;;;5053678;28;20732;-59
2024/03/31 12:38:59;;;;;;;11.63;10.40;;;11.40;99.90;;;;;;5072154;28;20202;-59
2024/03/31 12:41:26;;;;;;;13.03;10.40;;;11.60;99.90;;;;;;5075806;28;20591;-59
2024/03/31 12:44:02;;;;;;;11.90;10.67;;;11.60;99.90;;;;;;5074804;28;20194;-59
2024/03/31 12:46:29;;;;;;;11.63;10.50;;;11.60;99.90;;;;;;5081196;28;20754;-60
2024/03/31 12:48:55;;;;;;;12.13;10.93;;;11.70;99.90;;;;;;5073036;28;20286;-59
2024/03/31 12:51:22;;;;;;;13.67;11.30;;;11.80;99.90;;;;;;5055259;28;20229;-58
2024/03/31 12:53:50;;;;;;;12.87;10.57;;;12.00;99.90;;;;;;5072415;28;20209;-60
2024/03/31 12:56:18;;;;;;;12.23;10.37;;;12.10;99.90;;;;;;5083506;28;20213;-59
2024/03/31 12:58:47;;;;;;;10.20;9.10;;;12.10;99.90;;;;;;5065187;28;20541;-59
2024/03/31 13:01:18;;;;;;;11.03;9.93;;;12.10;99.90;;;;;;5086527;28;20186;-58
2024/03/31 13:03:45;;;;;;;11.97;10.00;;;12.10;99.90;;;;;;5074286;28;20260;-58
2024/03/31 13:06:11;;;;;;;12.40;10.37;;;12.10;99.90;;;;;;5083433;28;20244;-59
2024/03/31 13:08:45;;;;;;;10.47;9.47;;;12.30;99.90;;;;;;5051882;28;20259;-59
2024/03/31 13:11:12;;;;;;;11.30;10.20;;;12.40;99.90;;;;;;5061891;28;20204;-59
2024/03/31 13:13:41;;;;;;;11.67;9.53;;;12.40;99.90;;;;;;5076683;28;20315;-58
2024/03/31 13:16:07;;;;;;;12.20;10.50;;;12.50;99.90;;;;;;5070228;28;20222;-60
2024/03/31 13:18:34;;;;;;;12.67;10.20;;;12.50;99.90;;;;;;5085677;28;20186;-57
2024/03/31 13:21:00;;;;;;;10.60;9.50;;;12.70;99.90;;;;;;5073129;28;20205;-59
2024/03/31 13:23:27;;;;;;;10.20;9.10;;;12.80;99.90;;;;;;5055293;28;20279;-57
2024/03/31 13:25:53;;;;;;;12.17;9.27;;;12.90;99.90;;;;;;5079600;28;20222;-60
2024/03/31 13:28:20;;;;;;;11.50;10.30;;;13.00;99.90;;;;;;5077939;28;20228;-60
2024/03/31 13:30:47;;;;;;;11.80;9.77;;;13.20;99.90;;;;;;5060952;28;20668;-59
2024/03/31 13:33:14;;;;;;;10.60;8.97;;;13.30;99.90;;;;;;5083104;28;20948;-58
2024/03/31 13:35:40;;;;;;;15.37;11.40;;;13.50;99.90;;;;;;5078710;28;20361;-59
2024/03/31 13:38:07;;;;;;;12.63;10.67;;;13.50;99.90;;;;;;5054282;28;20949;-59
2024/03/31 13:40:33;;;;;;;13.00;10.20;;;13.50;99.90;;;;;;5078417;28;20205;-59
2024/03/31 13:43:00;;;;;;;15.03;11.67;;;13.70;99.90;;;;;;5085490;28;20190;-60
2024/03/31 13:45:26;;;;;;;11.97;10.73;;;14.00;99.90;;;;;;5084984;28;20210;-57
2024/03/31 13:47:54;;;;;;;12.37;10.47;;;14.10;99.90;;;;;;5080572;28;20224;-60
2024/03/31 13:50:20;;;;;;;11.70;9.00;;;14.10;99.90;;;;;;5074942;28;20202;-59
2024/03/31 13:52:47;;;;;;;11.40;9.70;;;14.20;99.90;;;;;;5066647;28;20202;-61
2024/03/31 13:55:13;;;;;;;10.43;8.97;;;14.40;99.90;;;;;;5061692;28;20215;-57
2024/03/31 13:57:39;;;;;;;10.20;9.20;;;14.40;99.90;;;;;;5072274;28;20222;-60
2024/03/31 14:00:07;;;;;;;10.50;9.50;;;14.40;99.90;;;;;;5077037;28;21178;-59
2024/03/31 14:02:43;;;;;;;10.30;9.00;;;14.40;99.90;;;;;;5073016;28;20209;-60
2024/03/31 14:05:10;;;;;;;8.87;7.97;;;14.50;99.90;;;;;;5082158;28;20973;-58
2024/03/31 14:07:37;;;;;;;11.40;8.70;;;14.40;99.90;;;;;;5070976;28;20222;-59
2024/03/31 14:10:03;;;;;;;10.77;9.27;;;14.30;99.90;;;;;;5047885;28;20278;-59
2024/03/31 14:12:31;;;;;;;9.93;8.47;;;14.70;99.90;;;;;;5071989;28;20214;-59
2024/03/31 14:14:57;;;;;;;9.90;8.03;;;14.70;99.90;;;;;;5072888;28;20276;-59
2024/03/31 14:17:24;;;;;;;7.60;6.80;;;14.70;99.90;;;;;;5075871;28;20347;-59
2024/03/31 14:19:50;;;;;;;7.93;7.23;;;14.70;99.90;;;;;;5084758;28;20308;-59
2024/03/31 14:22:18;;;;;;;8.00;7.10;;;14.70;99.90;;;;;;5078146;28;20230;-58
2024/03/31 14:24:44;;;;;;;6.90;6.30;;;14.60;99.90;;;;;;5061567;28;20221;-59
2024/03/31 14:27:11;;;;;;;7.03;6.33;;;14.40;99.90;;;;;;5067703;28;20218;-59
2024/03/31 14:29:37;;;;;;;7.97;6.90;;;14.30;99.90;;;;;;5074809;28;20210;-60
2024/03/31 14:32:05;;;;;;;9.07;7.53;;;14.30;99.90;;;;;;5073284;28;20255;-59
2024/03/31 14:34:31;;;;;;;8.20;7.30;;;14.40;99.90;;;;;;5083535;28;20197;-59
2024/03/31 14:36:58;;;;;;;7.53;6.50;;;14.40;99.90;;;;;;5081316;28;20997;-58
2024/03/31 14:39:25;;;;;;;9.20;6.03;;;14.40;99.90;;;;;;5066975;28;20208;-58
2024/03/31 14:41:52;;;;;;;7.23;6.53;;;14.30;99.90;;;;;;5047575;28;20201;-57
2024/03/31 14:44:17;;;;;;;9.40;6.43;;;14.30;99.90;;;;;;5067204;28;20225;-57
2024/03/31 14:46:44;;;;;;;5.77;5.20;;;14.20;99.90;;;;;;5077380;28;20298;-59
2024/03/31 14:49:10;;;;;;;7.00;6.30;;;14.10;99.90;;;;;;5077111;28;20303;-59
2024/03/31 14:51:37;;;;;;;7.13;6.43;;;14.10;99.90;;;;;;5083811;28;20182;-59
2024/03/31 14:54:04;;;;;;;7.43;6.63;;;14.10;99.90;;;;;;5068100;28;20202;-59
2024/03/31 14:56:32;;;;;;;7.37;6.07;;;14.00;99.90;;;;;;5051259;28;20210;-60
2024/03/31 14:58:58;;;;;;;9.90;6.67;;;13.90;99.90;;;;;;5074157;28;20209;-59
2024/03/31 15:01:24;;;;;;;6.80;6.10;;;13.90;99.90;;;;;;5078464;28;20193;-58
2024/03/31 15:03:50;;;;;;;9.13;6.00;;;13.90;99.90;;;;;;5063608;28;20201;-60
2024/03/31 15:06:17;;;;;;;6.90;6.27;;;13.90;99.90;;;;;;5089721;28;20217;-58
2024/03/31 15:08:43;;;;;;;6.83;6.13;;;14.00;99.90;;;;;;5073788;28;20202;-59
2024/03/31 15:11:10;;;;;;;7.63;6.30;;;14.10;99.90;;;;;;5086060;28;20196;-59
2024/03/31 15:13:37;;;;;;;7.07;6.37;;;14.20;99.90;;;;;;5041292;28;20190;-60
2024/03/31 15:16:05;;;;;;;6.97;6.07;;;14.20;99.90;;;;;;5061480;28;20256;-59
2024/03/31 15:18:30;;;;;;;7.47;6.77;;;14.20;99.90;;;;;;5063516;28;20206;-59
2024/03/31 15:20:57;;;;;;;7.63;5.93;;;14.30;99.90;;;;;;5081684;28;20192;-59
2024/03/31 15:23:23;;;;;;;9.00;6.77;;;14.30;99.90;;;;;;5068749;28;20209;-58
2024/03/31 15:25:50;;;;;;;9.67;6.77;;;14.50;99.90;;;;;;5082409;28;20244;-59
2024/03/31 15:28:16;;;;;;;7.47;6.67;;;14.50;99.90;;;;;;5050764;28;20831;-59
2024/03/31 15:30:53;;;;;;;9.33;7.50;;;14.50;99.90;;;;;;5074785;28;20197;-59
2024/03/31 15:33:18;;;;;;;7.60;6.90;;;14.40;99.90;;;;;;5064855;28;20226;-59
2024/03/31 15:35:46;;;;;;;8.30;7.40;;;14.30;99.90;;;;;;5074743;28;20276;-58
2024/03/31 15:38:12;;;;;;;7.57;6.67;;;14.30;99.90;;;;;;5072008;28;20198;-59
2024/03/31 15:40:39;;;;;;;9.93;7.37;;;14.20;99.90;;;;;;5082490;28;20733;-59
2024/03/31 15:43:04;;;;;;;9.30;7.97;;;14.20;99.90;;;;;;5069415;28;20198;-60
2024/03/31 15:45:31;;;;;;;9.27;8.40;;;14.20;99.90;;;;;;5069665;28;20225;-59
2024/03/31 15:47:58;;;;;;;8.60;7.80;;;14.20;99.90;;;;;;5080006;28;20821;-59
2024/03/31 15:50:27;;;;;;;9.97;7.83;;;14.10;99.90;;;;;;5069193;28;20201;-60
2024/03/31 15:52:53;;;;;;;9.37;8.17;;;14.10;99.90;;;;;;5089280;28;20272;-59
2024/03/31 15:55:19;;;;;;;8.57;7.67;;;14.00;99.90;;;;;;5070876;28;20212;-59
2024/03/31 15:57:45;;;;;;;8.87;7.43;;;13.90;99.90;;;;;;5088402;28;20218;-59
2024/03/31 16:00:13;;;;;;;10.63;8.10;;;13.90;99.90;;;;;;5053639;28;20295;-59
2024/03/31 16:02:39;;;;;;;9.17;7.43;;;13.80;99.90;;;;;;5081000;28;20202;-59
2024/03/31 16:05:08;;;;;;;9.57;7.43;;;13.80;99.90;;;;;;5069087;28;20660;-59
2024/03/31 16:07:34;;;;;;;9.67;7.90;;;13.80;99.90;;;;;;5084820;28;20224;-59
2024/03/31 16:10:03;;;;;;;11.17;7.97;;;13.80;99.90;;;;;;5084036;28;20197;-60
2024/03/31 16:12:29;;;;;;;9.70;8.27;;;13.80;99.90;;;;;;5077712;28;20206;-59
2024/03/31 16:14:56;;;;;;;10.30;8.93;;;13.80;99.90;;;;;;5056061;28;20637;-59
2024/03/31 16:17:22;;;;;;;11.77;8.50;;;13.80;99.90;;;;;;5076077;28;20214;-59
2024/03/31 16:19:49;;;;;;;9.63;8.20;;;13.70;99.90;;;;;;5086078;28;20198;-60
2024/03/31 16:22:16;;;;;;;11.17;8.77;;;13.60;99.90;;;;;;5063514;28;20577;-59
2024/03/31 16:24:43;;;;;;;9.60;8.70;;;13.50;99.90;;;;;;5088742;28;20259;-59
2024/03/31 16:27:09;;;;;;;10.47;9.17;;;13.40;99.90;;;;;;5070243;28;20267;-59
2024/03/31 16:29:36;;;;;;;10.57;9.47;;;13.40;99.90;;;;;;5062509;28;20186;-59
2024/03/31 16:32:02;;;;;;;12.73;9.83;;;13.40;99.90;;;;;;5084068;28;20275;-58
2024/03/31 16:34:29;;;;;;;10.23;9.07;;;13.30;99.90;;;;;;5075352;28;20243;-59
2024/03/31 16:36:54;;;;;;;10.17;8.47;;;13.20;99.90;;;;;;5077298;28;20218;-59
2024/03/31 16:39:23;;;;;;;9.97;8.90;;;13.20;99.90;;;;;;5064571;28;20201;-58
2024/03/31 16:41:48;;;;;;;9.77;8.30;;;13.10;99.90;;;;;;5067978;28;20212;-58
2024/03/31 16:44:15;;;;;;;11.37;10.13;;;13.00;99.90;;;;;;5081996;28;20186;-59
2024/03/31 16:46:41;;;;;;;10.57;8.90;;;13.00;99.90;;;;;;5061415;28;20690;-60
2024/03/31 16:49:08;;;;;;;12.83;10.43;;;12.90;99.90;;;;;;5074780;28;20265;-58
2024/03/31 16:51:34;;;;;;;11.27;9.50;;;12.90;99.90;;;;;;5084812;28;20193;-59
2024/03/31 16:54:00;;;;;;;10.47;9.40;;;12.80;99.90;;;;;;5064693;28;20205;-60
2024/03/31 16:56:28;;;;;;;14.73;10.13;;;12.80;99.90;;;;;;5074247;28;20218;-60
2024/03/31 16:58:54;;;;;;;11.07;9.83;;;12.80;99.90;;;;;;5083385;28;20647;-60
2024/03/31 17:01:20;;;;;;;11.77;9.53;;;12.70;99.90;;;;;;5056378;28;20193;-58
2024/03/31 17:03:47;;;;;;;13.67;10.60;;;12.70;99.90;;;;;;5084447;28;20536;-60
2024/03/31 17:06:13;;;;;;;10.83;9.53;;;12.70;99.90;;;;;;5072559;28;20913;-59
2024/03/31 17:08:40;;;;;;;12.07;9.83;;;12.70;99.90;;;;;;5074656;28;20197;-58
2024/03/31 17:11:06;;;;;;;13.00;10.17;;;12.70;99.90;;;;;;5062350;28;21676;-60
2024/03/31 17:13:34;;;;;;;12.93;10.37;;;12.60;99.90;;;;;;5082498;28;20197;-59
2024/03/31 17:16:00;;;;;;;14.20;10.90;;;12.50;99.90;;;;;;5042143;28;20704;-60
2024/03/31 17:18:27;;;;;;;13.67;10.87;;;12.40;99.90;;;;;;5080569;28;20243;-60
2024/03/31 17:20:52;;;;;;;10.97;9.43;;;12.40;99.90;;;;;;5072754;28;20198;-59
2024/03/31 17:23:22;;;;;;;12.77;10.73;;;12.40;99.90;;;;;;5073078;28;20271;-59
2024/03/31 17:25:54;;;;;;;13.60;10.90;;;12.30;99.90;;;;;;5075675;28;20226;-59
2024/03/31 17:28:21;;;;;;;14.07;11.90;;;12.20;99.90;;;;;;5067217;28;20288;-58
2024/03/31 17:30:50;;;;;;;13.40;11.80;;;12.20;99.90;;;;;;5058310;28;20198;-57
2024/03/31 17:33:17;;;;;;;14.80;12.20;;;12.10;99.90;;;;;;5082658;28;20194;-60
2024/03/31 17:35:53;;;;;;;16.97;13.03;;;12.00;99.90;;;;;;5076854;28;20341;-60
2024/03/31 17:38:20;;;;;;;17.17;13.00;;;12.00;99.90;;;;;;5061272;28;20193;-57
2024/03/31 17:40:54;;;;;;;17.00;13.77;;;12.00;99.90;;;;;;5074947;28;20205;-60
2024/03/31 17:43:21;;;;;;;18.87;15.07;;;11.90;99.90;;;;;;5070208;28;20186;-59
2024/03/31 17:45:48;;;;;;;17.77;14.20;;;11.90;99.90;;;;;;5085802;28;20577;-59
2024/03/31 17:48:15;;;;;;;18.77;15.13;;;11.80;99.90;;;;;;5047529;28;20202;-60
2024/03/31 17:50:41;;;;;;;16.70;14.13;;;11.80;99.90;;;;;;5085774;28;20201;-60
2024/03/31 17:53:07;;;;;;;18.33;15.83;;;11.70;99.90;;;;;;5067056;28;20247;-61
2024/03/31 17:55:33;;;;;;;16.63;14.77;;;11.70;99.90;;;;;;5069325;28;23182;-59
2024/03/31 17:58:00;;;;;;;18.13;15.53;;;11.70;99.90;;;;;;5079892;28;20214;-59
2024/03/31 18:00:27;;;;;;;18.47;14.60;;;11.60;99.90;;;;;;5069668;28;20203;-59
2024/03/31 18:02:55;;;;;;;17.53;14.80;;;11.60;99.90;;;;;;5051087;28;20209;-58
2024/03/31 18:05:21;;;;;;;20.77;16.87;;;11.60;99.90;;;;;;5080353;28;20923;-59
2024/03/31 18:07:49;;;;;;;18.60;16.03;;;11.50;99.90;;;;;;5075329;28;20596;-59
2024/03/31 18:10:15;;;;;;;18.90;15.70;;;11.40;99.90;;;;;;5072326;28;20565;-60
2024/03/31 18:12:41;;;;;;;18.27;15.00;;;11.40;99.90;;;;;;5076852;28;20280;-57
2024/03/31 18:15:10;;;;;;;16.27;13.67;;;11.30;99.90;;;;;;5067622;28;20213;-59
2024/03/31 18:17:37;;;;;;;16.00;14.30;;;11.30;99.90;;;;;;5032901;28;20316;-56
2024/03/31 18:20:05;;;;;;;15.27;13.27;;;11.30;99.90;;;;;;5079878;28;20701;-60
2024/03/31 18:22:32;;;;;;;14.73;13.20;;;11.20;99.90;;;;;;5078216;28;20209;-57
2024/03/31 18:24:58;;;;;;;16.10;14.50;;;11.20;99.90;;;;;;5076193;28;20802;-58
2024/03/31 18:27:25;;;;;;;15.73;13.73;;;11.20;99.90;;;;;;5075723;28;20225;-59
2024/03/31 18:29:51;;;;;;;15.43;12.97;;;11.10;99.90;;;;;;5076399;28;20680;-58
2024/03/31 18:32:18;;;;;;;18.43;13.87;;;11.00;99.90;;;;;;5082932;28;20201;-56
2024/03/31 18:34:43;;;;;;;15.20;13.40;;;10.80;99.90;;;;;;5053503;28;20669;-58
2024/03/31 18:37:12;;;;;;;17.03;13.37;;;10.80;99.90;;;;;;5084217;28;20262;-60
2024/03/31 18:39:38;;;;;;;15.70;13.33;;;10.80;99.90;;;;;;5050944;28;20296;-59
2024/03/31 18:42:05;;;;;;;16.00;12.93;;;10.80;99.90;;;;;;5083794;28;20260;-59
2024/03/31 18:44:31;;;;;;;16.07;12.00;;;10.80;99.90;;;;;;5073324;28;20201;-59
2024/03/31 18:46:58;;;;;;;15.00;13.27;;;10.70;99.90;;;;;;5069839;28;20226;-60
2024/03/31 18:49:24;;;;;;;14.40;11.60;;;10.70;99.90;;;;;;5048672;28;20201;-55
2024/03/31 18:51:51;;;;;;;16.93;14.10;;;10.60;99.90;;;;;;5082211;28;20198;-58
2024/03/31 18:54:18;;;;;;;16.10;11.53;;;10.50;99.90;;;;;;5068702;28;20996;-57
2024/03/31 18:56:45;;;;;;;12.67;11.17;;;10.50;99.90;;;;;;5070054;28;20783;-59
2024/03/31 18:59:11;;;;;;;12.30;11.00;;;10.50;99.90;;;;;;5069639;28;20206;-60
2024/03/31 19:01:38;;;;;;;13.60;11.90;;;10.50;99.90;;;;;;5068001;28;20243;-58
2024/03/31 19:04:04;;;;;;;15.23;11.70;;;10.50;99.90;;;;;;5052093;28;20229;-59
2024/03/31 19:06:31;;;;;;;15.73;11.90;;;10.40;99.90;;;;;;5067954;28;20228;-56
2024/03/31 19:08:57;;;;;;;14.40;12.23;;;10.40;99.90;;;;;;5079498;28;20186;-59
2024/03/31 19:11:25;;;;;;;14.30;11.83;;;10.30;99.90;;;;;;5069271;28;20197;-59
2024/03/31 19:13:51;;;;;;;15.60;12.90;;;10.30;99.90;;;;;;5071847;28;20721;-60
2024/03/31 19:16:18;;;;;;;14.97;11.83;;;10.30;99.90;;;;;;5068803;28;20213;-58
2024/03/31 19:18:44;;;;;;;17.43;13.67;;;10.20;99.90;;;;;;5059477;28;20283;-59
2024/03/31 19:21:11;;;;;;;15.73;13.20;;;10.20;99.90;;;;;;5070641;28;20398;-57
2024/03/31 19:23:38;;;;;;;16.37;12.70;;;10.20;99.90;;;;;;5083787;28;20198;-59
2024/03/31 19:26:06;;;;;;;15.97;13.07;;;10.10;99.90;;;;;;5076933;28;20214;-59
2024/03/31 19:28:34;;;;;;;16.43;12.97;;;10.10;99.90;;;;;;5074493;28;20206;-57
2024/03/31 19:31:05;;;;;;;16.47;12.83;;;10.00;99.90;;;;;;5062326;28;20206;-57
2024/03/31 19:33:31;;;;;;;16.70;12.60;;;10.00;99.90;;;;;;5075262;28;20280;-58
2024/03/31 19:36:01;;;;;;;19.53;14.90;;;9.90;99.90;;;;;;5045407;28;20921;-58
2024/03/31 19:38:27;;;;;;;20.43;16.20;;;9.90;99.90;;;;;;5084881;28;20244;-59
2024/03/31 19:40:57;;;;;;;17.00;14.43;;;9.90;99.90;;;;;;5075053;28;20641;-60
2024/03/31 19:43:23;;;;;;;19.27;15.50;;;9.80;99.90;;;;;;5067695;28;20232;-59
2024/03/31 19:45:51;;;;;;;21.23;15.90;;;9.80;99.90;;;;;;5077713;28;20220;-59
2024/03/31 19:48:17;;;;;;;20.53;15.57;;;9.80;99.90;;;;;;5064359;28;20214;-59
2024/03/31 19:50:43;;;;;;;20.40;15.67;;;9.70;99.90;;;;;;5053939;28;20939;-60
2024/03/31 19:53:09;;;;;;;17.43;14.97;;;9.60;99.90;;;;;;5085761;28;20202;-59
2024/03/31 19:55:36;;;;;;;16.50;13.90;;;9.70;99.90;;;;;;5083098;28;20186;-59
2024/03/31 19:58:02;;;;;;;17.23;14.53;;;9.70;99.90;;;;;;5080753;28;20226;-60
2024/03/31 20:00:29;;;;;;;18.40;14.20;;;9.60;99.90;;;;;;5062861;28;20198;-59
2024/03/31 20:02:56;;;;;;;23.10;15.43;;;9.60;99.90;;;;;;5068230;28;20283;-60
2024/03/31 20:05:23;;;;;;;17.80;14.30;;;9.60;99.90;;;;;;5043589;28;20209;-59
2024/03/31 20:07:51;;;;;;;17.17;13.83;;;9.60;99.90;;;;;;5082912;28;20218;-58
2024/03/31 20:10:18;;;;;;;18.67;14.07;;;9.60;99.90;;;;;;5081944;28;20532;-59
2024/03/31 20:12:43;;;;;;;17.37;14.37;;;9.60;99.90;;;;;;5076058;28;20267;-59
2024/03/31 20:15:10;;;;;;;18.73;15.03;;;9.60;99.90;;;;;;5073816;28;20410;-59
2024/03/31 20:17:36;;;;;;;16.57;14.10;;;9.60;99.90;;;;;;5061044;28;20959;-59
2024/03/31 20:20:06;;;;;;;19.73;13.53;;;9.60;99.90;;;;;;5075314;28;20675;-59
2024/03/31 20:22:32;;;;;;;17.63;13.57;;;9.50;99.90;;;;;;5049261;28;20198;-58
2024/03/31 20:25:00;;;;;;;18.83;14.37;;;9.50;99.90;;;;;;5084734;28;20545;-60
2024/03/31 20:27:26;;;;;;;18.53;14.07;;;9.40;99.90;;;;;;5073338;28;20270;-60
2024/03/31 20:29:53;;;;;;;23.63;16.00;;;9.40;99.90;;;;;;5077225;28;20830;-58
2024/03/31 20:32:19;;;;;;;22.03;17.87;;;9.30;99.90;;;;;;5073877;28;20551;-60
2024/03/31 20:34:45;;;;;;;21.20;16.53;;;9.20;99.90;;;;;;5071240;28;20210;-58
2024/03/31 20:37:13;;;;;;;21.43;16.73;;;9.30;99.90;;;;;;5055275;28;20798;-59
2024/03/31 20:39:40;;;;;;;23.40;17.23;;;9.20;99.90;;;;;;5078088;28;20946;-58
2024/03/31 20:42:09;;;;;;;24.90;17.27;;;9.20;99.90;;;;;;5086772;28;20194;-59
2024/03/31 20:44:36;;;;;;;19.10;15.43;;;9.20;99.90;;;;;;5069062;28;20205;-59
2024/03/31 20:47:02;;;;;;;19.47;15.57;;;9.20;99.90;;;;;;5079179;28;20224;-59
2024/03/31 20:49:29;;;;;;;20.67;15.27;;;9.10;99.90;;;;;;5071306;28;20216;-60
2024/03/31 20:51:55;;;;;;;19.80;15.00;;;9.10;99.90;;;;;;5052548;28;20262;-58
2024/03/31 20:54:23;;;;;;;18.17;15.20;;;9.10;99.90;;;;;;5082678;28;20202;-61
2024/03/31 20:56:49;;;;;;;18.93;15.03;;;9.10;99.90;;;;;;5066712;28;20838;-58
2024/03/31 20:59:16;;;;;;;21.17;15.47;;;9.10;99.90;;;;;;5073479;28;20198;-60
2024/03/31 21:01:42;;;;;;;20.80;16.33;;;9.10;99.90;;;;;;5070521;28;20206;-55
2024/03/31 21:04:09;;;;;;;21.30;15.53;;;9.10;99.90;;;;;;5078297;28;20198;-59
2024/03/31 21:06:35;;;;;;;20.90;15.20;;;9.10;99.90;;;;;;5040799;28;21590;-58
2024/03/31 21:09:02;;;;;;;20.10;16.20;;;9.10;99.90;;;;;;5083098;28;20273;-57
2024/03/31 21:11:31;;;;;;;22.27;16.13;;;9.10;99.90;;;;;;5082361;28;20191;-59
2024/03/31 21:13:58;;;;;;;22.97;16.50;;;9.10;99.90;;;;;;5085247;28;20576;-58
2024/03/31 21:16:25;;;;;;;22.80;17.10;;;9.10;99.90;;;;;;5056294;28;20271;-59
2024/03/31 21:18:52;;;;;;;21.70;17.20;;;9.10;99.90;;;;;;5056060;28;20198;-57
2024/03/31 21:21:19;;;;;;;24.57;17.07;;;9.10;99.90;;;;;;5071841;28;20218;-59
2024/03/31 21:23:47;;;;;;;21.93;17.63;;;9.10;99.90;;;;;;5058570;28;20194;-58
2024/03/31 21:26:13;;;;;;;21.07;17.57;;;9.10;99.90;;;;;;5084432;28;20210;-60
2024/03/31 21:28:42;;;;;;;24.70;19.33;;;9.10;99.90;;;;;;5085736;28;20276;-59
2024/03/31 21:31:08;;;;;;;21.83;18.47;;;9.10;99.90;;;;;;5072313;28;20601;-58
2024/03/31 21:33:36;;;;;;;22.20;15.97;;;9.10;99.90;;;;;;5073359;28;20214;-60
2024/03/31 21:36:03;;;;;;;21.43;17.53;;;9.10;99.90;;;;;;5084950;28;20206;-57
2024/03/31 21:38:30;;;;;;;22.97;17.50;;;9.10;99.90;;;;;;5033701;28;20240;-60
2024/03/31 21:41:03;;;;;;;24.60;19.07;;;9.10;99.90;;;;;;5079613;28;20221;-57
2024/03/31 21:43:30;;;;;;;23.40;18.10;;;9.10;99.90;;;;;;5082376;28;20655;-60
2024/03/31 21:45:57;;;;;;;23.63;17.90;;;9.10;99.90;;;;;;5072878;28;20231;-58
2024/03/31 21:48:24;;;;;;;21.80;17.30;;;9.10;99.90;;;;;;5064247;28;20269;-59
2024/03/31 21:50:51;;;;;;;23.07;18.40;;;9.00;99.90;;;;;;5065921;28;20357;-58
2024/03/31 21:53:18;;;;;;;21.03;17.70;;;9.00;99.90;;;;;;5044890;28;20276;-57
2024/03/31 21:55:50;;;;;;;20.73;16.93;;;9.00;99.90;;;;;;5087148;28;20254;-58
2024/03/31 21:58:17;;;;;;;24.13;16.47;;;9.00;99.90;;;;;;5087839;28;20559;-58
2024/03/31 22:00:43;;;;;;;22.83;18.13;;;9.00;99.90;;;;;;5077757;28;20194;-56
2024/03/31 22:03:11;;;;;;;21.73;18.83;;;9.00;99.90;;;;;;5074670;28;20240;-57
2024/03/31 22:05:36;;;;;;;25.17;18.00;;;8.90;99.90;;;;;;5073653;28;20255;-60
2024/03/31 22:08:04;;;;;;;22.50;17.97;;;8.80;99.90;;;;;;5075887;28;20221;-60
2024/03/31 22:10:29;;;;;;;24.70;18.10;;;8.80;99.90;;;;;;5057059;28;20277;-59
2024/03/31 22:12:56;;;;;;;21.93;17.33;;;8.90;99.90;;;;;;5084565;28;20205;-58
2024/03/31 22:15:22;;;;;;;20.93;16.50;;;8.90;99.90;;;;;;5086800;28;20202;-57
2024/03/31 22:17:49;;;;;;;19.43;14.83;;;8.80;99.90;;;;;;5065108;28;20290;-56
2024/03/31 22:20:16;;;;;;;23.07;17.43;;;8.80;99.90;;;;;;5073975;28;20263;-54
2024/03/31 22:22:43;;;;;;;26.60;17.07;;;8.80;99.90;;;;;;5070364;28;20567;-60
2024/03/31 22:25:09;;;;;;;22.37;14.63;;;8.80;99.90;;;;;;5049255;28;20218;-57
2024/03/31 22:27:36;;;;;;;18.70;15.10;;;8.70;99.90;;;;;;5062854;28;20241;-59
2024/03/31 22:30:02;;;;;;;24.37;17.80;;;8.80;99.90;;;;;;5084175;28;20194;-59
2024/03/31 22:32:28;;;;;;;29.03;19.70;;;8.70;99.90;;;;;;5080918;28;20703;-60
2024/03/31 22:34:54;;;;;;;22.90;17.57;;;8.70;99.90;;;;;;5048115;28;20202;-60
2024/03/31 22:37:23;;;;;;;19.00;15.57;;;8.60;99.90;;;;;;5081341;28;20225;-59
2024/03/31 22:39:48;;;;;;;19.77;15.53;;;8.60;99.90;;;;;;5037652;28;20213;-60
2024/03/31 22:42:16;;;;;;;20.40;15.53;;;8.70;99.90;;;;;;5082886;28;20189;-57
2024/03/31 22:44:41;;;;;;;20.83;15.60;;;8.70;99.90;;;;;;5080452;28;20197;-60
2024/03/31 22:47:08;;;;;;;21.27;15.03;;;8.60;99.90;;;;;;5083873;28;20599;-58
2024/03/31 22:49:34;;;;;;;21.77;14.90;;;8.60;99.90;;;;;;5068302;28;20202;-60
2024/03/31 22:52:01;;;;;;;17.93;13.87;;;8.60;99.90;;;;;;5079561;28;20239;-59
2024/03/31 22:54:28;;;;;;;19.03;14.70;;;8.60;99.90;;;;;;5072568;28;20657;-58
2024/03/31 22:56:55;;;;;;;18.40;13.40;;;8.60;99.90;;;;;;5051965;28;20857;-58
2024/03/31 22:59:21;;;;;;;21.70;14.17;;;8.50;99.90;;;;;;5084264;28;20204;-59
2024/03/31 23:01:47;;;;;;;17.20;12.83;;;8.50;99.90;;;;;;5080058;28;20186;-58
2024/03/31 23:04:13;;;;;;;16.17;12.33;;;8.50;99.90;;;;;;5071861;28;20251;-57
2024/03/31 23:06:40;;;;;;;16.30;12.80;;;8.50;99.90;;;;;;5070164;28;20222;-60
2024/03/31 23:09:06;;;;;;;15.10;11.30;;;8.60;99.90;;;;;;5072855;28;20198;-60
2024/03/31 23:11:35;;;;;;;13.53;11.57;;;8.50;99.90;;;;;;5050213;28;20337;-60
2024/03/31 23:14:00;;;;;;;16.43;12.10;;;8.60;99.90;;;;;;5084138;28;20944;-57
2024/03/31 23:16:27;;;;;;;17.30;11.67;;;8.60;99.90;;;;;;5082802;28;20209;-60
2024/03/31 23:18:54;;;;;;;13.27;10.97;;;8.60;99.90;;;;;;5082267;28;20189;-59
2024/03/31 23:21:21;;;;;;;14.03;10.80;;;8.60;99.90;;;;;;5067815;28;20695;-60
2024/03/31 23:23:47;;;;;;;16.47;11.50;;;8.60;99.90;;;;;;5060763;28;20218;-58
2024/03/31 23:26:13;;;;;;;13.50;10.17;;;8.60;99.90;;;;;;5083619;28;20218;-58
2024/03/31 23:28:40;;;;;;;13.07;10.80;;;8.60;99.90;;;;;;5053857;28;20274;-61